sensor_id;sensor_type;location;lat;lon;timestamp;P1;durP1;ratioP1;P2;durP2;ratioP2
1400;SDS011;46518;48.842;8.926;2022-08-01T00:00:07;3.77;;;3.40;;
1400;SDS011;46518;48.842;8.926;2022-08-01T00:02:36;4.20;;;3.60;;
1400;SDS011;46518;48.842;8.926;2022-08-01T00:05:07;3.40;;;3.13;;
1400;SDS011;46518;48.842;8.926;2022-08-01T00:07:37;4.30;;;3.37;;
1400;SDS011;46518;48.842;8.926;2022-08-01T00:10:06;3.70;;;3.40;;
1400;SDS011;46518;48.842;8.926;2022-08-01T00:12:36;5.30;;;4.10;;
1400;SDS011;46518;48.842;8.926;2022-08-01T00:15:05;3.30;;;3.10;;
1400;SDS011;46518;48.842;8.926;2022-08-01T00:17:35;3.80;;;3.50;;
1400;SDS011;46518;48.842;8.926;2022-08-01T00:20:06;4.37;;;3.77;;
1400;SDS011;46518;48.842;8.926;2022-08-01T00:22:35;6.00;;;4.23;;
1400;SDS011;46518;48.842;8.926;2022-08-01T00:25:04;4.47;;;4.07;;
1400;SDS011;46518;48.842;8.926;2022-08-01T00:27:33;4.47;;;4.07;;
1400;SDS011;46518;48.842;8.926;2022-08-01T00:30:03;4.00;;;3.70;;
1400;SDS011;46518;48.842;8.926;2022-08-01T00:32:40;3.60;;;3.30;;
1400;SDS011;46518;48.842;8.926;2022-08-01T00:35:10;4.87;;;3.90;;
1400;SDS011;46518;48.842;8.926;2022-08-01T00:37:39;3.53;;;3.20;;
1400;SDS011;46518;48.842;8.926;2022-08-01T00:40:08;3.77;;;3.47;;
1400;SDS011;46518;48.842;8.926;2022-08-01T00:42:36;3.60;;;3.30;;
1400;SDS011;46518;48.842;8.926;2022-08-01T00:45:09;3.90;;;3.33;;
1400;SDS011;46518;48.842;8.926;2022-08-01T00:47:38;3.70;;;3.40;;
1400;SDS011;46518;48.842;8.926;2022-08-01T00:50:06;4.90;;;4.30;;
1400;SDS011;46518;48.842;8.926;2022-08-01T00:52:37;4.00;;;3.70;;
1400;SDS011;46518;48.842;8.926;2022-08-01T00:55:07;4.47;;;4.07;;
1400;SDS011;46518;48.842;8.926;2022-08-01T00:57:40;5.03;;;3.70;;
1400;SDS011;46518;48.842;8.926;2022-08-01T01:00:29;4.85;;;4.45;;
1400;SDS011;46518;48.842;8.926;2022-08-01T01:03:00;4.30;;;3.90;;
1400;SDS011;46518;48.842;8.926;2022-08-01T01:05:28;4.10;;;3.80;;
1400;SDS011;46518;48.842;8.926;2022-08-01T01:08:06;5.88;;;4.05;;
1400;SDS011;46518;48.842;8.926;2022-08-01T01:10:47;4.45;;;3.70;;
1400;SDS011;46518;48.842;8.926;2022-08-01T01:13:20;4.40;;;4.00;;
1400;SDS011;46518;48.842;8.926;2022-08-01T01:15:55;3.58;;;3.28;;
1400;SDS011;46518;48.842;8.926;2022-08-01T01:18:27;3.75;;;3.45;;
1400;SDS011;46518;48.842;8.926;2022-08-01T01:21:03;6.73;;;4.57;;
1400;SDS011;46518;48.842;8.926;2022-08-01T01:23:45;4.90;;;4.50;;
1400;SDS011;46518;48.842;8.926;2022-08-01T01:26:25;3.75;;;3.53;;
1400;SDS011;46518;48.842;8.926;2022-08-01T01:29:09;4.53;;;4.13;;
1400;SDS011;46518;48.842;8.926;2022-08-01T01:31:43;4.20;;;3.90;;
1400;SDS011;46518;48.842;8.926;2022-08-01T01:34:15;4.38;;;3.97;;
1400;SDS011;46518;48.842;8.926;2022-08-01T01:36:45;4.00;;;3.70;;
1400;SDS011;46518;48.842;8.926;2022-08-01T01:39:15;3.55;;;3.25;;
1400;SDS011;46518;48.842;8.926;2022-08-01T01:41:45;4.40;;;3.15;;
1400;SDS011;46518;48.842;8.926;2022-08-01T01:44:19;4.82;;;4.47;;
1400;SDS011;46518;48.842;8.926;2022-08-01T01:46:47;4.57;;;4.18;;
1400;SDS011;46518;48.842;8.926;2022-08-01T01:49:18;3.85;;;3.55;;
1400;SDS011;46518;48.842;8.926;2022-08-01T01:51:49;3.92;;;3.20;;
1400;SDS011;46518;48.842;8.926;2022-08-01T01:54:30;5.20;;;4.10;;
1400;SDS011;46518;48.842;8.926;2022-08-01T01:57:03;5.70;;;4.35;;
1400;SDS011;46518;48.842;8.926;2022-08-01T01:59:34;4.32;;;4.03;;
1400;SDS011;46518;48.842;8.926;2022-08-01T02:02:05;4.25;;;3.95;;
1400;SDS011;46518;48.842;8.926;2022-08-01T02:04:35;4.13;;;3.72;;
1400;SDS011;46518;48.842;8.926;2022-08-01T02:07:07;4.25;;;3.95;;
1400;SDS011;46518;48.842;8.926;2022-08-01T02:09:37;4.22;;;3.92;;
1400;SDS011;46518;48.842;8.926;2022-08-01T02:12:07;4.63;;;4.28;;
1400;SDS011;46518;48.842;8.926;2022-08-01T02:14:41;4.57;;;4.15;;
1400;SDS011;46518;48.842;8.926;2022-08-01T02:17:11;4.20;;;3.83;;
1400;SDS011;46518;48.842;8.926;2022-08-01T02:19:43;4.40;;;4.00;;
1400;SDS011;46518;48.842;8.926;2022-08-01T02:22:14;3.90;;;3.58;;
1400;SDS011;46518;48.842;8.926;2022-08-01T02:24:49;7.32;;;4.40;;
1400;SDS011;46518;48.842;8.926;2022-08-01T02:27:21;4.00;;;3.60;;
1400;SDS011;46518;48.842;8.926;2022-08-01T02:29:55;4.00;;;3.70;;
1400;SDS011;46518;48.842;8.926;2022-08-01T02:32:27;4.03;;;3.63;;
1400;SDS011;46518;48.842;8.926;2022-08-01T02:35:00;4.32;;;3.92;;
1400;SDS011;46518;48.842;8.926;2022-08-01T02:37:31;4.00;;;3.65;;
1400;SDS011;46518;48.842;8.926;2022-08-01T02:40:02;3.72;;;3.42;;
1400;SDS011;46518;48.842;8.926;2022-08-01T02:42:38;6.50;;;3.60;;
1400;SDS011;46518;48.842;8.926;2022-08-01T02:45:22;4.70;;;4.00;;
1400;SDS011;46518;48.842;8.926;2022-08-01T02:47:53;4.00;;;3.60;;
1400;SDS011;46518;48.842;8.926;2022-08-01T02:50:27;4.15;;;3.80;;
1400;SDS011;46518;48.842;8.926;2022-08-01T02:52:57;3.88;;;3.10;;
1400;SDS011;46518;48.842;8.926;2022-08-01T02:55:27;3.72;;;3.35;;
1400;SDS011;46518;48.842;8.926;2022-08-01T02:57:57;3.97;;;3.55;;
1400;SDS011;46518;48.842;8.926;2022-08-01T03:00:29;3.92;;;3.63;;
1400;SDS011;46518;48.842;8.926;2022-08-01T03:02:59;8.90;;;3.40;;
1400;SDS011;46518;48.842;8.926;2022-08-01T03:05:31;4.63;;;3.90;;
1400;SDS011;46518;48.842;8.926;2022-08-01T03:08:00;5.63;;;3.53;;
1400;SDS011;46518;48.842;8.926;2022-08-01T03:10:29;3.72;;;3.35;;
1400;SDS011;46518;48.842;8.926;2022-08-01T03:12:59;4.63;;;3.85;;
1400;SDS011;46518;48.842;8.926;2022-08-01T03:15:31;3.80;;;3.50;;
1400;SDS011;46518;48.842;8.926;2022-08-01T03:18:01;6.53;;;3.92;;
1400;SDS011;46518;48.842;8.926;2022-08-01T03:20:31;4.30;;;3.50;;
1400;SDS011;46518;48.842;8.926;2022-08-01T03:23:01;3.70;;;3.40;;
1400;SDS011;46518;48.842;8.926;2022-08-01T03:25:33;3.13;;;2.88;;
1400;SDS011;46518;48.842;8.926;2022-08-01T03:28:04;3.78;;;3.47;;
1400;SDS011;46518;48.842;8.926;2022-08-01T03:30:36;4.63;;;4.05;;
1400;SDS011;46518;48.842;8.926;2022-08-01T03:33:07;3.63;;;3.33;;
1400;SDS011;46518;48.842;8.926;2022-08-01T03:35:42;3.50;;;3.20;;
1400;SDS011;46518;48.842;8.926;2022-08-01T03:38:16;4.07;;;3.78;;
1400;SDS011;46518;48.842;8.926;2022-08-01T03:40:47;4.60;;;3.30;;
1400;SDS011;46518;48.842;8.926;2022-08-01T03:43:18;4.50;;;3.75;;
1400;SDS011;46518;48.842;8.926;2022-08-01T03:45:51;5.50;;;3.30;;
1400;SDS011;46518;48.842;8.926;2022-08-01T03:48:22;3.53;;;3.22;;
1400;SDS011;46518;48.842;8.926;2022-08-01T03:50:56;3.42;;;3.13;;
1400;SDS011;46518;48.842;8.926;2022-08-01T03:53:28;4.00;;;3.58;;
1400;SDS011;46518;48.842;8.926;2022-08-01T03:55:58;4.43;;;3.92;;
1400;SDS011;46518;48.842;8.926;2022-08-01T03:58:29;4.05;;;3.72;;
1400;SDS011;46518;48.842;8.926;2022-08-01T04:00:59;4.47;;;3.88;;
1400;SDS011;46518;48.842;8.926;2022-08-01T04:03:28;3.95;;;3.65;;
1400;SDS011;46518;48.842;8.926;2022-08-01T04:05:57;4.20;;;3.85;;
1400;SDS011;46518;48.842;8.926;2022-08-01T04:08:33;6.60;;;4.10;;
1400;SDS011;46518;48.842;8.926;2022-08-01T04:11:02;4.43;;;3.65;;
1400;SDS011;46518;48.842;8.926;2022-08-01T04:13:31;4.32;;;3.70;;
1400;SDS011;46518;48.842;8.926;2022-08-01T04:16:04;4.85;;;3.60;;
1400;SDS011;46518;48.842;8.926;2022-08-01T04:18:32;4.43;;;4.03;;
1400;SDS011;46518;48.842;8.926;2022-08-01T04:21:01;3.78;;;3.47;;
1400;SDS011;46518;48.842;8.926;2022-08-01T04:23:29;4.15;;;3.85;;
1400;SDS011;46518;48.842;8.926;2022-08-01T04:25:59;4.18;;;3.88;;
1400;SDS011;46518;48.842;8.926;2022-08-01T04:28:31;4.25;;;3.85;;
1400;SDS011;46518;48.842;8.926;2022-08-01T04:31:05;4.85;;;3.80;;
1400;SDS011;46518;48.842;8.926;2022-08-01T04:33:38;5.00;;;3.50;;
1400;SDS011;46518;48.842;8.926;2022-08-01T04:36:08;4.18;;;3.88;;
1400;SDS011;46518;48.842;8.926;2022-08-01T04:38:38;3.60;;;3.30;;
1400;SDS011;46518;48.842;8.926;2022-08-01T04:41:10;4.05;;;3.35;;
1400;SDS011;46518;48.842;8.926;2022-08-01T04:43:41;3.70;;;3.40;;
1400;SDS011;46518;48.842;8.926;2022-08-01T04:46:12;3.80;;;3.50;;
1400;SDS011;46518;48.842;8.926;2022-08-01T04:48:42;5.00;;;3.65;;
1400;SDS011;46518;48.842;8.926;2022-08-01T04:51:11;4.38;;;3.83;;
1400;SDS011;46518;48.842;8.926;2022-08-01T04:53:42;4.40;;;3.63;;
1400;SDS011;46518;48.842;8.926;2022-08-01T04:56:12;4.30;;;4.00;;
1400;SDS011;46518;48.842;8.926;2022-08-01T04:58:41;3.72;;;3.42;;
1400;SDS011;46518;48.842;8.926;2022-08-01T05:01:12;4.93;;;3.85;;
1400;SDS011;46518;48.842;8.926;2022-08-01T05:03:41;4.10;;;3.80;;
1400;SDS011;46518;48.842;8.926;2022-08-01T05:06:10;3.65;;;3.30;;
1400;SDS011;46518;48.842;8.926;2022-08-01T05:08:38;4.05;;;3.75;;
1400;SDS011;46518;48.842;8.926;2022-08-01T05:11:08;4.35;;;3.22;;
1400;SDS011;46518;48.842;8.926;2022-08-01T05:13:38;4.63;;;3.40;;
1400;SDS011;46518;48.842;8.926;2022-08-01T05:16:06;5.03;;;3.60;;
1400;SDS011;46518;48.842;8.926;2022-08-01T05:18:36;3.20;;;3.00;;
1400;SDS011;46518;48.842;8.926;2022-08-01T05:21:06;3.63;;;3.30;;
1400;SDS011;46518;48.842;8.926;2022-08-01T05:23:34;4.40;;;4.10;;
1400;SDS011;46518;48.842;8.926;2022-08-01T05:26:09;3.63;;;3.30;;
1400;SDS011;46518;48.842;8.926;2022-08-01T05:28:40;3.97;;;3.58;;
1400;SDS011;46518;48.842;8.926;2022-08-01T05:31:09;3.50;;;2.75;;
1400;SDS011;46518;48.842;8.926;2022-08-01T05:33:39;4.50;;;3.13;;
1400;SDS011;46518;48.842;8.926;2022-08-01T05:36:07;3.35;;;3.03;;
1400;SDS011;46518;48.842;8.926;2022-08-01T05:38:35;3.53;;;3.10;;
1400;SDS011;46518;48.842;8.926;2022-08-01T05:41:04;3.30;;;3.00;;
1400;SDS011;46518;48.842;8.926;2022-08-01T05:43:32;4.03;;;3.60;;
1400;SDS011;46518;48.842;8.926;2022-08-01T05:46:00;4.82;;;3.90;;
1400;SDS011;46518;48.842;8.926;2022-08-01T05:48:29;4.05;;;2.90;;
1400;SDS011;46518;48.842;8.926;2022-08-01T05:50:59;4.00;;;3.65;;
1400;SDS011;46518;48.842;8.926;2022-08-01T05:53:27;3.45;;;3.13;;
1400;SDS011;46518;48.842;8.926;2022-08-01T05:55:56;5.80;;;3.78;;
1400;SDS011;46518;48.842;8.926;2022-08-01T05:58:24;3.45;;;3.15;;
1400;SDS011;46518;48.842;8.926;2022-08-01T06:00:52;3.60;;;3.25;;
1400;SDS011;46518;48.842;8.926;2022-08-01T06:03:21;2.90;;;2.70;;
1400;SDS011;46518;48.842;8.926;2022-08-01T06:05:51;3.65;;;3.35;;
1400;SDS011;46518;48.842;8.926;2022-08-01T06:08:21;4.03;;;3.73;;
1400;SDS011;46518;48.842;8.926;2022-08-01T06:10:49;4.90;;;3.08;;
1400;SDS011;46518;48.842;8.926;2022-08-01T06:13:17;4.00;;;3.50;;
1400;SDS011;46518;48.842;8.926;2022-08-01T06:15:46;4.38;;;3.97;;
1400;SDS011;46518;48.842;8.926;2022-08-01T06:18:15;3.27;;;3.07;;
1400;SDS011;46518;48.842;8.926;2022-08-01T06:20:44;3.28;;;3.08;;
1400;SDS011;46518;48.842;8.926;2022-08-01T06:23:12;4.03;;;3.10;;
1400;SDS011;46518;48.842;8.926;2022-08-01T06:25:59;2.57;;;2.37;;
1400;SDS011;46518;48.842;8.926;2022-08-01T06:28:28;3.50;;;3.30;;
1400;SDS011;46518;48.842;8.926;2022-08-01T06:30:56;3.77;;;3.37;;
1400;SDS011;46518;48.842;8.926;2022-08-01T06:33:26;3.73;;;2.97;;
1400;SDS011;46518;48.842;8.926;2022-08-01T06:35:55;4.50;;;2.73;;
1400;SDS011;46518;48.842;8.926;2022-08-01T06:38:24;3.20;;;2.90;;
1400;SDS011;46518;48.842;8.926;2022-08-01T06:40:52;3.60;;;3.30;;
1400;SDS011;46518;48.842;8.926;2022-08-01T06:43:22;3.73;;;2.60;;
1400;SDS011;46518;48.842;8.926;2022-08-01T06:45:50;2.90;;;2.70;;
1400;SDS011;46518;48.842;8.926;2022-08-01T06:48:19;2.60;;;2.40;;
1400;SDS011;46518;48.842;8.926;2022-08-01T06:50:47;4.53;;;2.50;;
1400;SDS011;46518;48.842;8.926;2022-08-01T06:53:15;2.67;;;2.40;;
1400;SDS011;46518;48.842;8.926;2022-08-01T06:55:44;2.50;;;2.30;;
1400;SDS011;46518;48.842;8.926;2022-08-01T06:58:12;2.73;;;2.17;;
1400;SDS011;46518;48.842;8.926;2022-08-01T07:00:43;2.17;;;2.00;;
1400;SDS011;46518;48.842;8.926;2022-08-01T07:03:11;2.00;;;1.90;;
1400;SDS011;46518;48.842;8.926;2022-08-01T07:05:39;2.30;;;2.13;;
1400;SDS011;46518;48.842;8.926;2022-08-01T07:08:08;6.63;;;2.67;;
1400;SDS011;46518;48.842;8.926;2022-08-01T07:10:37;2.17;;;2.07;;
1400;SDS011;46518;48.842;8.926;2022-08-01T07:13:05;5.00;;;2.20;;
1400;SDS011;46518;48.842;8.926;2022-08-01T07:15:33;3.30;;;3.00;;
1400;SDS011;46518;48.842;8.926;2022-08-01T07:18:03;2.30;;;2.20;;
1400;SDS011;46518;48.842;8.926;2022-08-01T07:20:32;3.20;;;2.43;;
1400;SDS011;46518;48.842;8.926;2022-08-01T07:23:17;2.13;;;1.93;;
1400;SDS011;46518;48.842;8.926;2022-08-01T07:25:48;2.80;;;2.60;;
1400;SDS011;46518;48.842;8.926;2022-08-01T07:28:23;5.43;;;2.77;;
1400;SDS011;46518;48.842;8.926;2022-08-01T07:30:52;2.80;;;2.60;;
1400;SDS011;46518;48.842;8.926;2022-08-01T07:33:21;2.53;;;2.33;;
1400;SDS011;46518;48.842;8.926;2022-08-01T07:35:50;2.50;;;2.23;;
1400;SDS011;46518;48.842;8.926;2022-08-01T07:38:18;3.03;;;2.83;;
1400;SDS011;46518;48.842;8.926;2022-08-01T07:40:46;2.80;;;2.60;;
1400;SDS011;46518;48.842;8.926;2022-08-01T07:43:15;3.43;;;3.13;;
1400;SDS011;46518;48.842;8.926;2022-08-01T07:45:43;2.40;;;2.30;;
1400;SDS011;46518;48.842;8.926;2022-08-01T07:48:12;2.13;;;2.03;;
1400;SDS011;46518;48.842;8.926;2022-08-01T07:51:08;2.67;;;2.43;;
1400;SDS011;46518;48.842;8.926;2022-08-01T07:53:36;2.17;;;2.07;;
1400;SDS011;46518;48.842;8.926;2022-08-01T07:56:05;6.20;;;2.77;;
1400;SDS011;46518;48.842;8.926;2022-08-01T07:58:33;6.73;;;2.53;;
1400;SDS011;46518;48.842;8.926;2022-08-01T08:01:02;2.87;;;2.67;;
1400;SDS011;46518;48.842;8.926;2022-08-01T08:03:30;3.67;;;3.33;;
1400;SDS011;46518;48.842;8.926;2022-08-01T08:05:59;3.33;;;3.03;;
1400;SDS011;46518;48.842;8.926;2022-08-01T08:08:28;4.63;;;2.67;;
1400;SDS011;46518;48.842;8.926;2022-08-01T08:10:57;6.50;;;3.63;;
1400;SDS011;46518;48.842;8.926;2022-08-01T08:13:25;5.10;;;2.40;;
1400;SDS011;46518;48.842;8.926;2022-08-01T08:15:54;2.93;;;2.73;;
1400;SDS011;46518;48.842;8.926;2022-08-01T08:18:24;4.67;;;3.07;;
1400;SDS011;46518;48.842;8.926;2022-08-01T08:20:53;3.97;;;2.90;;
1400;SDS011;46518;48.842;8.926;2022-08-01T08:23:21;4.67;;;3.77;;
1400;SDS011;46518;48.842;8.926;2022-08-01T08:26:11;4.87;;;3.87;;
1400;SDS011;46518;48.842;8.926;2022-08-01T08:28:39;7.40;;;6.63;;
1400;SDS011;46518;48.842;8.926;2022-08-01T08:31:08;8.03;;;7.23;;
1400;SDS011;46518;48.842;8.926;2022-08-01T08:33:56;9.80;;;8.80;;
1400;SDS011;46518;48.842;8.926;2022-08-01T08:36:25;10.87;;;8.10;;
1400;SDS011;46518;48.842;8.926;2022-08-01T08:38:57;7.87;;;6.97;;
1400;SDS011;46518;48.842;8.926;2022-08-01T08:41:29;6.77;;;6.17;;
1400;SDS011;46518;48.842;8.926;2022-08-01T08:44:04;9.03;;;8.30;;
1400;SDS011;46518;48.842;8.926;2022-08-01T08:46:39;8.67;;;7.83;;
1400;SDS011;46518;48.842;8.926;2022-08-01T08:49:09;9.57;;;8.67;;
1400;SDS011;46518;48.842;8.926;2022-08-01T08:51:39;7.70;;;7.10;;
1400;SDS011;46518;48.842;8.926;2022-08-01T08:54:10;10.90;;;9.87;;
1400;SDS011;46518;48.842;8.926;2022-08-01T08:56:41;9.17;;;8.37;;
1400;SDS011;46518;48.842;8.926;2022-08-01T08:59:11;12.80;;;11.70;;
1400;SDS011;46518;48.842;8.926;2022-08-01T09:01:41;10.67;;;9.70;;
1400;SDS011;46518;48.842;8.926;2022-08-01T09:04:10;10.17;;;9.27;;
1400;SDS011;46518;48.842;8.926;2022-08-01T09:06:39;10.30;;;9.50;;
1400;SDS011;46518;48.842;8.926;2022-08-01T09:09:09;10.23;;;9.10;;
1400;SDS011;46518;48.842;8.926;2022-08-01T09:11:38;9.10;;;8.40;;
1400;SDS011;46518;48.842;8.926;2022-08-01T09:14:08;8.03;;;7.33;;
1400;SDS011;46518;48.842;8.926;2022-08-01T09:16:42;6.43;;;5.93;;
1400;SDS011;46518;48.842;8.926;2022-08-01T09:19:15;6.23;;;5.73;;
1400;SDS011;46518;48.842;8.926;2022-08-01T09:22:05;5.30;;;4.90;;
1400;SDS011;46518;48.842;8.926;2022-08-01T09:24:36;5.10;;;4.70;;
1400;SDS011;46518;48.842;8.926;2022-08-01T09:27:14;5.03;;;4.70;;
1400;SDS011;46518;48.842;8.926;2022-08-01T09:29:49;3.90;;;3.60;;
1400;SDS011;46518;48.842;8.926;2022-08-01T09:32:29;4.53;;;4.13;;
1400;SDS011;46518;48.842;8.926;2022-08-01T09:38:16;4.13;;;3.83;;
1400;SDS011;46518;48.842;8.926;2022-08-01T09:40:46;3.50;;;3.20;;
1400;SDS011;46518;48.842;8.926;2022-08-01T09:43:16;5.23;;;3.63;;
1400;SDS011;46518;48.842;8.926;2022-08-01T09:45:47;4.40;;;4.00;;
1400;SDS011;46518;48.842;8.926;2022-08-01T09:48:19;3.43;;;3.23;;
1400;SDS011;46518;48.842;8.926;2022-08-01T09:50:55;4.90;;;4.50;;
1400;SDS011;46518;48.842;8.926;2022-08-01T09:53:41;5.67;;;4.30;;
1400;SDS011;46518;48.842;8.926;2022-08-01T09:56:17;5.00;;;4.60;;
1400;SDS011;46518;48.842;8.926;2022-08-01T09:58:50;4.67;;;4.20;;
1400;SDS011;46518;48.842;8.926;2022-08-01T10:01:28;6.20;;;5.60;;
1400;SDS011;46518;48.842;8.926;2022-08-01T10:04:07;7.23;;;6.70;;
1400;SDS011;46518;48.842;8.926;2022-08-01T10:06:38;6.83;;;6.33;;
1400;SDS011;46518;48.842;8.926;2022-08-01T10:09:10;7.80;;;7.20;;
1400;SDS011;46518;48.842;8.926;2022-08-01T10:12:05;7.50;;;6.90;;
1400;SDS011;46518;48.842;8.926;2022-08-01T10:14:41;5.70;;;5.30;;
1400;SDS011;46518;48.842;8.926;2022-08-01T10:17:14;8.13;;;7.53;;
1400;SDS011;46518;48.842;8.926;2022-08-01T10:19:46;8.37;;;7.67;;
1400;SDS011;46518;48.842;8.926;2022-08-01T10:22:19;7.03;;;6.53;;
1400;SDS011;46518;48.842;8.926;2022-08-01T10:24:55;6.33;;;5.83;;
1400;SDS011;46518;48.842;8.926;2022-08-01T10:27:29;6.40;;;6.00;;
1400;SDS011;46518;48.842;8.926;2022-08-01T10:30:05;4.97;;;4.63;;
1400;SDS011;46518;48.842;8.926;2022-08-01T10:32:50;5.47;;;4.97;;
1400;SDS011;46518;48.842;8.926;2022-08-01T10:35:20;5.97;;;5.53;;
1400;SDS011;46518;48.842;8.926;2022-08-01T10:38:09;5.30;;;4.80;;
1400;SDS011;46518;48.842;8.926;2022-08-01T10:40:39;5.20;;;4.80;;
1400;SDS011;46518;48.842;8.926;2022-08-01T10:43:09;5.40;;;4.90;;
1400;SDS011;46518;48.842;8.926;2022-08-01T10:48:20;4.47;;;4.17;;
1400;SDS011;46518;48.842;8.926;2022-08-01T10:50:56;4.90;;;4.50;;
1400;SDS011;46518;48.842;8.926;2022-08-01T10:53:27;4.40;;;4.10;;
1400;SDS011;46518;48.842;8.926;2022-08-01T10:56:07;4.00;;;3.70;;
1400;SDS011;46518;48.842;8.926;2022-08-01T10:58:42;3.83;;;3.53;;
1400;SDS011;46518;48.842;8.926;2022-08-01T11:01:23;4.33;;;3.30;;
1400;SDS011;46518;48.842;8.926;2022-08-01T11:04:05;6.87;;;3.70;;
1400;SDS011;46518;48.842;8.926;2022-08-01T11:06:43;5.37;;;4.87;;
1400;SDS011;46518;48.842;8.926;2022-08-01T11:09:23;4.70;;;4.40;;
1400;SDS011;46518;48.842;8.926;2022-08-01T11:12:37;3.13;;;2.93;;
1400;SDS011;46518;48.842;8.926;2022-08-01T11:15:16;2.77;;;2.57;;
1400;SDS011;46518;48.842;8.926;2022-08-01T11:17:59;4.87;;;3.10;;
1400;SDS011;46518;48.842;8.926;2022-08-01T11:20:32;4.23;;;3.63;;
1400;SDS011;46518;48.842;8.926;2022-08-01T11:23:17;4.73;;;4.40;;
1400;SDS011;46518;48.842;8.926;2022-08-01T11:31:54;3.83;;;3.53;;
1400;SDS011;46518;48.842;8.926;2022-08-01T11:35:10;4.13;;;3.73;;
1400;SDS011;46518;48.842;8.926;2022-08-01T11:37:44;4.30;;;3.60;;
1400;SDS011;46518;48.842;8.926;2022-08-01T11:40:16;3.37;;;3.17;;
1400;SDS011;46518;48.842;8.926;2022-08-01T11:42:51;3.60;;;3.30;;
1400;SDS011;46518;48.842;8.926;2022-08-01T11:45:49;3.87;;;3.67;;
1400;SDS011;46518;48.842;8.926;2022-08-01T11:48:18;5.43;;;3.57;;
1400;SDS011;46518;48.842;8.926;2022-08-01T11:50:53;5.00;;;4.60;;
1400;SDS011;46518;48.842;8.926;2022-08-01T11:53:24;4.83;;;3.90;;
1400;SDS011;46518;48.842;8.926;2022-08-01T11:55:54;4.77;;;3.83;;
1400;SDS011;46518;48.842;8.926;2022-08-01T11:58:24;4.30;;;4.00;;
1400;SDS011;46518;48.842;8.926;2022-08-01T12:00:58;4.30;;;4.00;;
1400;SDS011;46518;48.842;8.926;2022-08-01T12:03:27;4.73;;;3.53;;
1400;SDS011;46518;48.842;8.926;2022-08-01T12:06:00;4.80;;;3.33;;
1400;SDS011;46518;48.842;8.926;2022-08-01T12:08:31;3.27;;;3.07;;
1400;SDS011;46518;48.842;8.926;2022-08-01T12:11:02;2.93;;;2.73;;
1400;SDS011;46518;48.842;8.926;2022-08-01T12:13:39;3.20;;;2.90;;
1400;SDS011;46518;48.842;8.926;2022-08-01T12:16:08;2.90;;;2.70;;
1400;SDS011;46518;48.842;8.926;2022-08-01T12:18:38;3.43;;;2.97;;
1400;SDS011;46518;48.842;8.926;2022-08-01T12:21:07;3.03;;;2.73;;
1400;SDS011;46518;48.842;8.926;2022-08-01T12:23:37;3.30;;;2.40;;
1400;SDS011;46518;48.842;8.926;2022-08-01T12:26:08;7.10;;;2.70;;
1400;SDS011;46518;48.842;8.926;2022-08-01T12:28:59;2.90;;;2.70;;
1400;SDS011;46518;48.842;8.926;2022-08-01T12:31:31;3.57;;;3.27;;
1400;SDS011;46518;48.842;8.926;2022-08-01T12:36:56;3.07;;;2.87;;
1400;SDS011;46518;48.842;8.926;2022-08-01T12:39:31;5.00;;;4.60;;
1400;SDS011;46518;48.842;8.926;2022-08-01T12:42:00;3.37;;;3.17;;
1400;SDS011;46518;48.842;8.926;2022-08-01T12:44:29;3.03;;;2.83;;
1400;SDS011;46518;48.842;8.926;2022-08-01T12:46:58;3.73;;;3.43;;
1400;SDS011;46518;48.842;8.926;2022-08-01T12:49:31;3.60;;;3.30;;
1400;SDS011;46518;48.842;8.926;2022-08-01T12:52:00;3.70;;;3.20;;
1400;SDS011;46518;48.842;8.926;2022-08-01T12:54:29;4.83;;;3.30;;
1400;SDS011;46518;48.842;8.926;2022-08-01T12:56:59;6.60;;;2.90;;
1400;SDS011;46518;48.842;8.926;2022-08-01T12:59:28;3.80;;;3.37;;
1400;SDS011;46518;48.842;8.926;2022-08-01T13:01:56;3.30;;;3.10;;
1400;SDS011;46518;48.842;8.926;2022-08-01T13:04:48;3.00;;;2.70;;
1400;SDS011;46518;48.842;8.926;2022-08-01T13:07:19;2.90;;;2.70;;
1400;SDS011;46518;48.842;8.926;2022-08-01T13:09:50;5.83;;;4.23;;
1400;SDS011;46518;48.842;8.926;2022-08-01T13:12:20;3.27;;;2.97;;
1400;SDS011;46518;48.842;8.926;2022-08-01T13:14:49;3.87;;;3.57;;
1400;SDS011;46518;48.842;8.926;2022-08-01T13:17:29;3.40;;;3.20;;
1400;SDS011;46518;48.842;8.926;2022-08-01T13:19:58;3.57;;;3.37;;
1400;SDS011;46518;48.842;8.926;2022-08-01T13:22:31;5.00;;;3.23;;
1400;SDS011;46518;48.842;8.926;2022-08-01T13:25:10;3.87;;;3.57;;
1400;SDS011;46518;48.842;8.926;2022-08-01T13:27:42;3.07;;;2.87;;
1400;SDS011;46518;48.842;8.926;2022-08-01T13:30:20;3.47;;;3.23;;
1400;SDS011;46518;48.842;8.926;2022-08-01T13:32:56;5.80;;;2.87;;
1400;SDS011;46518;48.842;8.926;2022-08-01T13:35:26;3.17;;;2.97;;
1400;SDS011;46518;48.842;8.926;2022-08-01T13:37:54;4.83;;;3.00;;
1400;SDS011;46518;48.842;8.926;2022-08-01T13:40:24;3.20;;;3.00;;
1400;SDS011;46518;48.842;8.926;2022-08-01T13:42:55;4.73;;;2.97;;
1400;SDS011;46518;48.842;8.926;2022-08-01T13:45:23;5.60;;;3.33;;
1400;SDS011;46518;48.842;8.926;2022-08-01T13:47:52;4.00;;;3.67;;
1400;SDS011;46518;48.842;8.926;2022-08-01T13:50:39;4.53;;;3.37;;
1400;SDS011;46518;48.842;8.926;2022-08-01T13:53:07;3.70;;;3.47;;
1400;SDS011;46518;48.842;8.926;2022-08-01T13:55:36;3.63;;;2.70;;
1400;SDS011;46518;48.842;8.926;2022-08-01T13:58:06;3.40;;;3.10;;
1400;SDS011;46518;48.842;8.926;2022-08-01T14:00:34;3.60;;;3.30;;
1400;SDS011;46518;48.842;8.926;2022-08-01T14:03:03;2.60;;;2.40;;
1400;SDS011;46518;48.842;8.926;2022-08-01T14:05:52;3.23;;;2.90;;
1400;SDS011;46518;48.842;8.926;2022-08-01T14:08:24;5.00;;;3.07;;
1400;SDS011;46518;48.842;8.926;2022-08-01T14:10:52;3.67;;;3.37;;
1400;SDS011;46518;48.842;8.926;2022-08-01T14:13:25;3.50;;;3.30;;
1400;SDS011;46518;48.842;8.926;2022-08-01T14:16:02;10.67;;;4.10;;
1400;SDS011;46518;48.842;8.926;2022-08-01T14:18:31;3.17;;;2.87;;
1400;SDS011;46518;48.842;8.926;2022-08-01T14:21:03;3.37;;;3.13;;
1400;SDS011;46518;48.842;8.926;2022-08-01T14:23:32;3.00;;;2.80;;
1400;SDS011;46518;48.842;8.926;2022-08-01T14:26:00;3.40;;;3.00;;
1400;SDS011;46518;48.842;8.926;2022-08-01T14:28:38;3.20;;;3.00;;
1400;SDS011;46518;48.842;8.926;2022-08-01T14:31:07;3.87;;;3.57;;
1400;SDS011;46518;48.842;8.926;2022-08-01T14:33:36;3.60;;;2.83;;
1400;SDS011;46518;48.842;8.926;2022-08-01T14:36:05;3.20;;;3.00;;
1400;SDS011;46518;48.842;8.926;2022-08-01T14:38:54;4.60;;;3.00;;
1400;SDS011;46518;48.842;8.926;2022-08-01T14:41:26;2.93;;;2.73;;
1400;SDS011;46518;48.842;8.926;2022-08-01T14:43:58;3.30;;;2.77;;
1400;SDS011;46518;48.842;8.926;2022-08-01T14:46:26;3.17;;;2.87;;
1400;SDS011;46518;48.842;8.926;2022-08-01T14:48:57;3.10;;;2.70;;
1400;SDS011;46518;48.842;8.926;2022-08-01T14:51:25;3.37;;;2.97;;
1400;SDS011;46518;48.842;8.926;2022-08-01T14:53:54;3.30;;;3.10;;
1400;SDS011;46518;48.842;8.926;2022-08-01T14:56:22;3.13;;;2.87;;
1400;SDS011;46518;48.842;8.926;2022-08-01T14:58:51;3.37;;;2.57;;
1400;SDS011;46518;48.842;8.926;2022-08-01T15:01:20;7.03;;;3.20;;
1400;SDS011;46518;48.842;8.926;2022-08-01T15:03:49;2.63;;;2.43;;
1400;SDS011;46518;48.842;8.926;2022-08-01T15:06:28;3.63;;;3.33;;
1400;SDS011;46518;48.842;8.926;2022-08-01T15:08:57;3.07;;;2.57;;
1400;SDS011;46518;48.842;8.926;2022-08-01T15:11:33;2.83;;;2.63;;
1400;SDS011;46518;48.842;8.926;2022-08-01T15:14:02;4.43;;;2.70;;
1400;SDS011;46518;48.842;8.926;2022-08-01T15:16:49;4.07;;;3.60;;
1400;SDS011;46518;48.842;8.926;2022-08-01T15:19:17;3.60;;;2.20;;
1400;SDS011;46518;48.842;8.926;2022-08-01T15:21:46;2.40;;;2.20;;
1400;SDS011;46518;48.842;8.926;2022-08-01T15:24:14;2.30;;;2.10;;
1400;SDS011;46518;48.842;8.926;2022-08-01T15:26:42;2.60;;;2.00;;
1400;SDS011;46518;48.842;8.926;2022-08-01T15:29:11;2.73;;;2.33;;
1400;SDS011;46518;48.842;8.926;2022-08-01T15:31:40;2.53;;;2.33;;
1400;SDS011;46518;48.842;8.926;2022-08-01T15:34:09;2.53;;;2.20;;
1400;SDS011;46518;48.842;8.926;2022-08-01T15:36:38;2.37;;;2.20;;
1400;SDS011;46518;48.842;8.926;2022-08-01T15:39:09;3.57;;;2.20;;
1400;SDS011;46518;48.842;8.926;2022-08-01T15:41:37;2.80;;;2.57;;
1400;SDS011;46518;48.842;8.926;2022-08-01T15:44:06;2.53;;;2.37;;